Nebraska Township, Illinois
Current Conditions -  °F | °C
As of 1:35 PM on Monday 22 Dec 2014 (Local Time) from KPNT Reporting Station
Light Rain Light Rain  
Wind Chill: 30°   Ceiling: 500
Heat Index: 38°   Visibility: 1.7mi
Dew Point: 38°   Wind: 15mph
Humidity: 99%   Direction: 120°ESE
Pressure: 29.69"   Gusts: NA
Location:  40.8852°N, 88.8734°W
Report Text: KPNT 221935Z AUTO 12013KT 1 3/4SM -RA OVC005 04/03 A2969 RMK AO2 P0004 T00350033
Loading
Personal Weather Stations






























Interactive Weather Map New forecast layout! Learn more

10-Day Weather Forecast

Advertisements
Track Severe Weather on mobile